• Join FlightAware (Why Join?)
  • Login
  • US Flag 
12:52AM EDT


 

Airport Tracker/Info


-or-


 

Live Flight TrackerFlight Track Log ✈ WEW1540 ✈ 08-May-2013 ✈ CYYN - CYQR

Flight Track Log - Related Links

Times and Time Zones

All times are in EDT time to prevent confusion due to time zone crossing. See the WEW1540 flight status page for this flight to view local times or setup timezone preferences in your user account.

Time Position Orientation Groundspeed Altitude Reporting Facility
EDT Latitude Longitude Course Direction KTS MPH feet Rate Location/Type
08:04PM 50.3500 -107.2500 73° East 190 219 9,000  Level Winnipeg Center
08:05PM 50.3667 -107.1667 73° East 190 219 9,000  Level Winnipeg Center
08:06PM 50.3667 -107.0667 90° East 190 219 9,000  Level Winnipeg Center
08:07PM 50.3833 -106.9833 73° East 190 219 9,000 -60 Level Winnipeg Center
08:08PM 50.3833 -106.9000 90° East 200 230 8,900  Descending Winnipeg Center
08:09PM 50.4167 -106.8333 52° Northeast 190 219 9,000  Climbing Winnipeg Center
08:10PM 50.4167 -106.7500 90° East 190 219 9,000  Level Winnipeg Center
08:11PM 50.4333 -106.6500 75° East 200 230 9,000  Level Winnipeg Center
08:12PM 50.4333 -106.5667 90° East 200 230 9,100  Climbing Winnipeg Center
08:13PM 50.4167 -106.4833 107° East 200 230 9,100 -60 Level Winnipeg Center
08:14PM 50.4333 -106.3833 75° East 200 230 9,000 -60 Descending Winnipeg Center
08:15PM 50.4167 -106.3000 107° East 200 230 9,000  Level Winnipeg Center
08:16PM 50.4333 -106.2333 69° East 200 230 9,000  Level Winnipeg Center
08:17PM 50.4167 -106.1500 107° East 200 230 9,000  Level Winnipeg Center
08:18PM 50.4000 -106.0667 107° East 200 230 9,100  Climbing Winnipeg Center
08:19PM 50.4000 -105.9667 90° East 200 230 9,000  Descending Winnipeg Center
08:20PM 50.3833 -105.8833 107° East 200 230 9,100  Climbing Winnipeg Center
08:21PM 50.4000 -105.8000 73° East 190 219 9,100  Level Winnipeg Center
08:22PM 50.3833 -105.7167 107° East 200 230 9,100 -60 Level Winnipeg Center
08:23PM 50.3833 -105.6333 90° East 190 219 9,000 -300 Descending Winnipeg Center
08:24PM 50.4000 -105.5333 75° East 200 230 8,600 -420 Descending Winnipeg Center
08:25PM 50.4000 -105.4500 90° East 200 230 8,200 -540 Descending Winnipeg Center
08:26PM 50.4000 -105.3833 90° East 200 230 7,600 -720 Descending Winnipeg Center
08:27PM 50.4000 -105.2667 90° East 200 230 6,800 -720 Descending Winnipeg Center
08:28PM 50.4000 -105.2000 90° East 190 219 6,200 -600 Descending Winnipeg Center
08:29PM 50.4167 -105.1167 73° East 180 207 5,600 -840 Descending Winnipeg Center
08:30PM 50.4000 -105.0333 107° East 180 207 4,600 -900 Descending Winnipeg Center
08:31PM 50.4000 -104.9833 90° East 170 196 3,900 -480 Descending Winnipeg Center
08:32PM 50.4167 -104.9000 73° East 160 184 3,700 -300 Descending Winnipeg Center
08:33PM 50.4167 -104.8500 90° East 130 150 3,400 -360 Descending Winnipeg Center
08:34PM 50.4167 -104.8000 90° East 120 138 3,000 -420 Descending Winnipeg Center
08:35PM 50.4000 -104.7500 118° Southeast 120 138 2,600 -600 Descending Winnipeg Center
08:36PM 50.4000 -104.7000 90° East 110 127 1,900 -720 Descending Winnipeg Center